Terminal Aerodrome Forecast
Issued by NWS North Platte, NE

Home | Current Version | Previous Version | Text Only | Print | Product List | Glossary Off
Versions: 1 2 3 4 5 6 7 8 9 10 11 12 13 14 15

000
FTUS43 KLBF 251720
TAFVTN
TAF
KVTN 251720Z 2518/2618 32008KT P6SM SCT120 OVC200
     FM252100 35008KT P6SM SCT100 BKN200
     FM260300 30003KT P6SM OVC100
     FM261200 31008KT P6SM BKN250=

USA.gov is the U.S. government's official web portal to all federal, state and local government web resources and services.